OMAD/AZI METAR and TAF weather

Enter ICAO airport designator
Station Type Date Time Source
OMAD METAR 2021/01/22 07:00 UTC NOAA

OMAD 220700Z 31013KT 290V350 9999 BKN030 21/12 Q1021 NOSIG


Station Type Date Time Source
OMAD Decoded METAR 2021/01/22 07:00 UTC NOAA

Abu Dhabi Bateen Airport, United Arab Emirates (OMAD) 24-26N 054-28E 3M
Jan 22, 2021 - 02:00 AM EST / 2021.01.22 0700 UTC
Wind: from the NW (310 degrees) at 15 MPH (13 KT) (direction variable):0
Visibility: greater than 7 mile(s):0
Sky conditions: mostly cloudy
Temperature: 69 F (21 C)
Dew Point: 53 F (12 C)
Relative Humidity: 56%
Pressure (altimeter): 30.15 in. Hg (1021 hPa)
ob: OMAD 220700Z 31013KT 290V350 9999 BKN030 21/12 Q1021 NOSIG
cycle: 7

Station Type Date Time Source
OMAD TAF 2021/01/22 06:06 UTC NOAA

TAF TAF OMAD 220500Z 2206/2312 30015KT 8000 SCT030
BECMG 2300/2302 10005KT
BECMG 2307/2309 36010KT

Example: see airport list